createdAt,value
2018-07-21T00:01:21.304Z,8.80
2018-07-21T00:03:53.436Z,7.53
2018-07-21T00:06:25.550Z,8.10
2018-07-21T00:08:57.667Z,8.30
2018-07-21T00:11:29.804Z,9.03
2018-07-21T00:14:01.887Z,8.17
2018-07-21T00:16:33.985Z,8.47
2018-07-21T00:19:06.283Z,8.70
2018-07-21T00:21:38.393Z,9.20
2018-07-21T00:24:10.450Z,9.07
2018-07-21T00:26:47.370Z,8.47
2018-07-21T00:29:19.868Z,9.23
2018-07-21T00:31:51.914Z,10.43
2018-07-21T00:34:23.944Z,8.60
2018-07-21T00:36:56.028Z,13.53
2018-07-21T00:39:28.083Z,9.30
2018-07-21T00:42:00.150Z,18.00
2018-07-21T00:44:32.183Z,9.30
2018-07-21T00:47:04.251Z,8.60
2018-07-21T00:49:36.359Z,9.10
2018-07-21T00:52:08.433Z,9.63
2018-07-21T00:54:40.487Z,10.33
2018-07-21T00:57:12.591Z,8.70
2018-07-21T00:59:44.695Z,11.00
2018-07-21T01:02:16.766Z,9.07
2018-07-21T01:04:48.811Z,8.37
2018-07-21T01:07:20.871Z,9.70
2018-07-21T01:09:53.976Z,8.60
2018-07-21T01:12:26.071Z,9.20
2018-07-21T01:14:58.195Z,8.30
2018-07-21T01:17:30.271Z,9.00
2018-07-21T01:20:02.428Z,9.27
2018-07-21T01:22:34.701Z,8.83
2018-07-21T01:25:06.980Z,10.20
2018-07-21T01:27:39.047Z,8.87
2018-07-21T01:30:11.095Z,9.10
2018-07-21T01:32:43.191Z,9.73
2018-07-21T01:35:15.224Z,9.30
2018-07-21T01:37:47.318Z,9.40
2018-07-21T01:40:19.384Z,9.80
2018-07-21T01:42:51.643Z,9.97
2018-07-21T01:45:23.683Z,9.07
2018-07-21T01:47:55.727Z,8.60
2018-07-21T01:50:28.023Z,10.77
2018-07-21T01:53:00.116Z,9.23
2018-07-21T01:55:32.119Z,10.07
2018-07-21T01:58:04.325Z,9.80
2018-07-21T02:00:36.442Z,9.40
2018-07-21T02:03:08.662Z,10.03
2018-07-21T02:05:40.740Z,8.93
2018-07-21T02:08:12.812Z,9.43
2018-07-21T02:10:44.926Z,10.47
2018-07-21T02:13:17.736Z,9.93
2018-07-21T02:15:49.778Z,9.50
2018-07-21T02:18:21.883Z,9.60
2018-07-21T02:20:53.949Z,8.77
2018-07-21T02:23:26.020Z,10.50
2018-07-21T02:25:58.070Z,10.43
2018-07-21T02:28:31.771Z,8.70
2018-07-21T02:31:03.839Z,12.10
2018-07-21T02:33:35.909Z,8.80
2018-07-21T02:36:07.976Z,10.83
2018-07-21T02:38:40.028Z,9.03
2018-07-21T02:41:12.098Z,9.60
2018-07-21T02:43:44.163Z,9.40
2018-07-21T02:46:16.235Z,9.83
2018-07-21T02:48:48.290Z,10.67
2018-07-21T02:51:20.351Z,10.67
2018-07-21T02:53:52.536Z,11.03
2018-07-21T02:56:24.710Z,10.43
2018-07-21T02:58:56.731Z,10.80
2018-07-21T03:01:28.780Z,9.97
2018-07-21T03:04:00.825Z,10.57
2018-07-21T03:06:32.872Z,10.47
2018-07-21T03:09:07.142Z,10.43
2018-07-21T03:11:39.559Z,11.53
2018-07-21T03:14:11.679Z,11.03
2018-07-21T03:16:43.836Z,12.17
2018-07-21T03:19:15.941Z,11.17
2018-07-21T03:21:48.063Z,12.13
2018-07-21T03:24:20.166Z,10.67
2018-07-21T03:26:52.284Z,10.93
2018-07-21T03:29:24.371Z,10.93
2018-07-21T03:31:57.244Z,11.40
2018-07-21T03:34:29.356Z,10.97
2018-07-21T03:37:01.433Z,10.87
2018-07-21T03:39:33.564Z,11.37
2018-07-21T03:42:05.656Z,12.67
2018-07-21T03:44:37.780Z,15.30
2018-07-21T03:47:09.930Z,12.37
2018-07-21T03:49:42.024Z,11.77
2018-07-21T03:52:14.137Z,12.47
2018-07-21T03:54:46.207Z,11.37
2018-07-21T03:57:18.342Z,12.20
2018-07-21T03:59:50.408Z,12.73
2018-07-21T04:02:22.504Z,10.73
2018-07-21T04:04:54.663Z,12.57
2018-07-21T04:07:26.813Z,12.10
2018-07-21T04:09:58.927Z,13.17
2018-07-21T04:12:31.027Z,12.77
2018-07-21T04:15:03.376Z,11.87
2018-07-21T04:17:35.450Z,11.90
2018-07-21T04:20:07.599Z,12.30
2018-07-21T04:22:39.740Z,11.67
2018-07-21T04:25:11.775Z,12.23
2018-07-21T04:27:43.840Z,12.87
2018-07-21T04:30:15.964Z,12.30
2018-07-21T04:32:48.139Z,11.73
2018-07-21T04:35:20.255Z,12.07
2018-07-21T04:37:52.352Z,11.67
2018-07-21T04:40:24.453Z,11.90
2018-07-21T04:42:56.583Z,11.07
2018-07-21T04:45:28.681Z,11.30
2018-07-21T04:48:00.824Z,11.13
2018-07-21T04:50:32.900Z,10.80
2018-07-21T04:53:05.282Z,11.47
2018-07-21T04:55:37.406Z,11.33
2018-07-21T04:58:09.542Z,11.40
2018-07-21T05:00:41.676Z,10.90
2018-07-21T05:03:13.719Z,10.67
2018-07-21T05:05:45.788Z,11.07
2018-07-21T05:08:17.892Z,11.00
2018-07-21T05:10:50.011Z,12.23
2018-07-21T05:13:22.067Z,11.50
2018-07-21T05:15:54.251Z,11.10
2018-07-21T05:18:26.289Z,11.50
2018-07-21T05:20:58.462Z,10.70
2018-07-21T05:23:30.581Z,10.80
2018-07-21T05:26:02.710Z,10.63
2018-07-21T05:28:34.790Z,10.53
2018-07-21T05:31:07.215Z,10.70
2018-07-21T05:33:39.428Z,10.50
2018-07-21T05:36:11.504Z,10.30
2018-07-21T05:38:43.659Z,10.63
2018-07-21T05:41:15.827Z,10.50
2018-07-21T05:43:48.001Z,11.13
2018-07-21T05:46:20.063Z,14.50
2018-07-21T05:48:52.191Z,11.00
2018-07-21T05:51:24.303Z,11.00
2018-07-21T05:53:56.464Z,9.40
2018-07-21T05:56:28.647Z,8.93
2018-07-21T05:59:00.756Z,8.37
2018-07-21T06:01:32.849Z,8.87
2018-07-21T06:04:04.959Z,7.70
2018-07-21T06:06:37.052Z,9.03
2018-07-21T06:09:10.468Z,8.57
2018-07-21T06:11:42.588Z,9.30
2018-07-21T06:14:14.716Z,8.60
2018-07-21T06:16:46.867Z,7.90
2018-07-21T06:19:19.019Z,8.30
2018-07-21T06:21:51.142Z,9.37
2018-07-21T06:24:23.304Z,8.33
2018-07-21T06:26:55.429Z,9.00
2018-07-21T06:29:27.515Z,8.27
2018-07-21T06:31:59.608Z,8.10
2018-07-21T06:34:31.709Z,8.07
2018-07-21T06:37:03.895Z,8.03
2018-07-21T06:39:36.013Z,7.27
2018-07-21T06:42:08.321Z,7.70
2018-07-21T06:44:40.412Z,8.90
2018-07-21T06:47:12.502Z,8.57
2018-07-21T06:49:44.547Z,10.70
2018-07-21T06:52:16.634Z,8.27
2018-07-21T06:54:48.808Z,8.70
2018-07-21T06:57:20.904Z,7.33
2018-07-21T06:59:53.012Z,9.23
2018-07-21T07:02:25.152Z,7.53
2018-07-21T07:04:57.221Z,8.00
2018-07-21T07:07:29.328Z,7.80
2018-07-21T07:10:01.559Z,8.17
2018-07-21T07:12:33.618Z,7.13
2018-07-21T07:15:05.845Z,7.80
2018-07-21T07:17:38.004Z,7.50
2018-07-21T07:20:10.151Z,7.30
2018-07-21T07:22:42.277Z,7.53
2018-07-21T07:25:14.412Z,7.57
2018-07-21T07:27:46.511Z,7.37
2018-07-21T07:30:18.617Z,7.33
2018-07-21T07:32:50.738Z,8.37
2018-07-21T07:35:22.829Z,8.20
2018-07-21T07:37:55.014Z,7.07
2018-07-21T07:40:27.141Z,7.60
2018-07-21T07:42:59.267Z,7.50
2018-07-21T07:45:31.371Z,6.73
2018-07-21T07:48:03.533Z,7.37
2018-07-21T07:50:35.616Z,7.40
2018-07-21T07:53:07.668Z,6.80
2018-07-21T07:55:39.818Z,7.23
2018-07-21T07:58:11.925Z,7.17
2018-07-21T08:00:44.092Z,7.57
2018-07-21T08:03:16.279Z,7.17
2018-07-21T08:05:48.758Z,7.30
2018-07-21T08:08:20.916Z,8.17
2018-07-21T08:10:53.832Z,7.20
2018-07-21T08:13:25.956Z,7.47
2018-07-21T08:15:59.548Z,7.43
2018-07-21T08:18:31.667Z,6.83
2018-07-21T08:21:03.790Z,8.03
2018-07-21T08:23:35.903Z,8.20
2018-07-21T08:26:08.018Z,7.10
2018-07-21T08:28:40.111Z,7.87
2018-07-21T08:31:12.247Z,7.10
2018-07-21T08:33:44.667Z,7.03
2018-07-21T08:36:16.767Z,7.50
2018-07-21T08:38:50.036Z,7.80
2018-07-21T08:41:22.151Z,7.20
2018-07-21T08:43:54.293Z,7.50
2018-07-21T08:46:26.424Z,6.70
2018-07-21T08:48:58.488Z,6.57
2018-07-21T08:51:30.639Z,7.50
2018-07-21T08:54:02.802Z,7.30
2018-07-21T08:56:34.873Z,7.20
2018-07-21T08:59:06.979Z,6.53
2018-07-21T09:01:39.171Z,7.07
2018-07-21T09:04:11.269Z,6.40
2018-07-21T09:06:43.423Z,6.67
2018-07-21T09:09:15.604Z,6.83
2018-07-21T09:11:47.755Z,8.17
2018-07-21T09:14:19.901Z,5.80
2018-07-21T09:16:52.029Z,6.03
2018-07-21T09:19:24.643Z,7.70
2018-07-21T09:21:56.780Z,6.80
2018-07-21T09:24:28.894Z,6.57
2018-07-21T09:27:00.992Z,6.53
2018-07-21T09:29:33.052Z,7.70
2018-07-21T09:32:05.493Z,6.90
2018-07-21T09:34:37.608Z,7.83
2018-07-21T09:37:10.043Z,7.37
2018-07-21T09:45:37.465Z,7.07
2018-07-21T09:48:09.643Z,7.57
2018-07-21T09:50:41.784Z,8.47
2018-07-21T09:53:14.963Z,6.50
2018-07-21T09:55:50.901Z,7.10
2018-07-21T09:58:24.079Z,7.27
2018-07-21T10:01:02.041Z,6.80
2018-07-21T10:03:34.620Z,7.10
2018-07-21T10:06:06.724Z,6.97
2018-07-21T10:08:38.851Z,7.20
2018-07-21T10:11:11.032Z,7.33
2018-07-21T10:13:43.177Z,7.77
2018-07-21T10:16:15.274Z,7.37
2018-07-21T10:18:47.439Z,7.50
2018-07-21T10:21:19.542Z,8.33
2018-07-21T10:23:51.725Z,7.53
2018-07-21T10:26:29.344Z,8.07
2018-07-21T10:29:10.541Z,7.90
2018-07-21T10:31:43.499Z,7.70
2018-07-21T10:34:15.594Z,7.97
2018-07-21T10:36:47.711Z,8.00
2018-07-21T10:39:19.811Z,7.37
2018-07-21T10:41:51.927Z,7.53
2018-07-21T10:44:24.120Z,7.63
2018-07-21T10:46:56.277Z,7.67
2018-07-21T10:49:29.010Z,8.40
2018-07-21T10:52:01.069Z,7.17
2018-07-21T10:54:33.213Z,7.40
2018-07-21T10:57:05.306Z,7.83
2018-07-21T10:59:37.369Z,8.07
2018-07-21T11:02:09.564Z,8.80
2018-07-21T11:04:41.645Z,8.20
2018-07-21T11:07:13.675Z,8.37
2018-07-21T11:09:45.814Z,8.40
2018-07-21T11:12:17.904Z,8.30
2018-07-21T11:14:49.961Z,8.33
2018-07-21T11:17:22.004Z,8.70
2018-07-21T11:19:54.316Z,8.17
2018-07-21T11:22:26.379Z,8.20
2018-07-21T11:24:58.472Z,8.70
2018-07-21T11:27:30.530Z,8.83
2018-07-21T11:30:03.139Z,7.77
2018-07-21T11:32:35.195Z,7.40
2018-07-21T11:35:07.264Z,8.57
2018-07-21T11:37:39.330Z,7.37
2018-07-21T11:40:11.415Z,8.00
2018-07-21T11:42:43.475Z,6.90
2018-07-21T11:45:15.597Z,8.70
2018-07-21T11:47:47.666Z,8.40
2018-07-21T11:50:19.728Z,7.80
2018-07-21T11:52:51.841Z,7.90
2018-07-21T11:55:23.903Z,8.47
2018-07-21T11:57:55.978Z,8.07
2018-07-21T12:00:28.027Z,7.40
2018-07-21T12:03:00.104Z,7.47
2018-07-21T12:05:32.214Z,7.60
2018-07-21T12:08:04.289Z,8.53
2018-07-21T12:10:36.394Z,7.57
2018-07-21T12:13:08.481Z,8.33
2018-07-21T12:15:40.554Z,9.00
2018-07-21T12:18:12.619Z,12.70
2018-07-21T12:20:44.769Z,7.63
2018-07-21T12:23:16.807Z,8.30
2018-07-21T12:25:48.905Z,9.07
2018-07-21T12:28:21.061Z,7.87
2018-07-21T12:30:53.257Z,8.10
2018-07-21T12:33:25.346Z,8.00
2018-07-21T12:35:57.411Z,9.13
2018-07-21T12:38:29.467Z,8.30
2018-07-21T12:41:01.601Z,9.37
2018-07-21T12:43:33.621Z,8.73
2018-07-21T12:46:05.720Z,8.30
2018-07-21T12:48:37.745Z,8.73
2018-07-21T12:51:09.868Z,9.17
2018-07-21T12:53:41.924Z,8.53
2018-07-21T12:56:14.003Z,9.17
2018-07-21T12:58:46.067Z,10.33
2018-07-21T13:01:18.526Z,9.00
2018-07-21T13:03:50.592Z,8.70
2018-07-21T13:06:22.645Z,8.67
2018-07-21T13:08:54.780Z,9.43
2018-07-21T13:11:26.839Z,10.03
2018-07-21T13:13:58.916Z,9.03
2018-07-21T13:16:30.976Z,9.50
2018-07-21T13:19:03.132Z,9.60
2018-07-21T13:21:35.395Z,9.37
2018-07-21T13:24:07.510Z,9.67
2018-07-21T13:26:39.639Z,8.77
2018-07-21T13:29:11.709Z,8.40
2018-07-21T13:31:43.796Z,8.47
2018-07-21T13:34:15.902Z,9.13
2018-07-21T13:36:47.952Z,8.70
2018-07-21T13:39:20.101Z,8.17
2018-07-21T13:41:52.193Z,9.07
2018-07-21T13:44:24.308Z,9.50
2018-07-21T13:46:56.480Z,9.40
2018-07-21T13:49:28.575Z,10.40
2018-07-21T13:52:00.645Z,11.13
2018-07-21T13:54:32.695Z,10.63
2018-07-21T13:57:04.796Z,9.40
2018-07-21T13:59:36.916Z,8.90
2018-07-21T14:02:09.006Z,9.80
2018-07-21T14:04:41.043Z,8.30
2018-07-21T14:07:13.973Z,9.53
2018-07-21T14:09:46.058Z,8.73
2018-07-21T14:12:18.110Z,9.87
2018-07-21T14:14:50.179Z,9.40
2018-07-21T14:17:22.296Z,9.37
2018-07-21T14:19:54.395Z,9.07
2018-07-21T14:22:26.510Z,9.50
2018-07-21T14:24:58.627Z,9.10
2018-07-21T14:27:30.691Z,8.53
2018-07-21T14:30:02.924Z,9.40
2018-07-21T14:32:34.920Z,9.30
2018-07-21T14:35:06.999Z,9.10
2018-07-21T14:37:39.062Z,8.53
2018-07-21T14:40:11.225Z,8.80
2018-07-21T14:42:46.434Z,9.43
2018-07-21T14:45:18.682Z,7.43
2018-07-21T14:47:50.795Z,7.97
2018-07-21T14:50:22.879Z,8.90
2018-07-21T14:52:54.981Z,9.63
2018-07-21T14:55:27.204Z,8.87
2018-07-21T14:57:59.262Z,8.33
2018-07-21T15:00:31.333Z,8.87
2018-07-21T15:03:03.477Z,7.83
2018-07-21T15:05:35.660Z,8.10
2018-07-21T15:08:07.934Z,10.37
2018-07-21T15:10:40.151Z,7.60
2018-07-21T15:13:12.379Z,9.27
2018-07-21T15:15:44.595Z,8.80
2018-07-21T15:18:16.724Z,8.23
2018-07-21T15:20:48.870Z,7.60
2018-07-21T15:23:21.268Z,8.53
2018-07-21T15:25:53.393Z,7.53
2018-07-21T15:28:25.460Z,7.37
2018-07-21T15:30:57.521Z,7.90
2018-07-21T15:33:29.749Z,7.73
2018-07-21T15:36:01.856Z,7.83
2018-07-21T15:38:33.923Z,7.80
2018-07-21T15:41:06.059Z,8.13
2018-07-21T15:43:38.164Z,8.03
2018-07-21T15:46:10.331Z,8.07
2018-07-21T15:48:42.391Z,8.30
2018-07-21T15:51:15.026Z,7.70
2018-07-21T15:53:47.152Z,7.30
2018-07-21T15:56:19.309Z,7.83
2018-07-21T15:58:51.370Z,8.80
2018-07-21T16:01:23.465Z,7.33
2018-07-21T16:03:55.514Z,9.50
2018-07-21T16:06:27.559Z,8.57
2018-07-21T16:08:59.609Z,7.93
2018-07-21T16:11:31.695Z,8.60
2018-07-21T16:14:03.861Z,8.43
2018-07-21T16:16:35.965Z,7.93
2018-07-21T16:19:08.036Z,7.00
2018-07-21T16:21:40.154Z,7.97
2018-07-21T16:24:12.206Z,8.47
2018-07-21T16:26:44.301Z,8.27
2018-07-21T16:29:16.353Z,7.80
2018-07-21T16:31:48.416Z,8.07
2018-07-21T16:34:20.462Z,8.40
2018-07-21T16:36:52.549Z,7.43
2018-07-21T16:39:24.611Z,8.63
2018-07-21T16:41:56.681Z,8.30
2018-07-21T16:44:28.748Z,7.43
2018-07-21T16:47:00.867Z,7.07
2018-07-21T16:49:32.939Z,7.90
2018-07-21T16:52:05.045Z,7.50
2018-07-21T16:54:37.126Z,7.67
2018-07-21T16:57:09.204Z,7.60
2018-07-21T16:59:41.258Z,8.27
2018-07-21T17:02:13.329Z,8.00
2018-07-21T17:04:45.377Z,7.20
2018-07-21T17:07:17.411Z,8.13
2018-07-21T17:09:49.480Z,7.50
2018-07-21T17:12:21.579Z,7.93
2018-07-21T17:14:53.633Z,8.47
2018-07-21T17:17:25.711Z,7.10
2018-07-21T17:19:57.813Z,7.67
2018-07-21T17:22:29.891Z,7.20
2018-07-21T17:25:02.132Z,8.00
2018-07-21T17:27:34.252Z,6.87
2018-07-21T17:30:06.730Z,7.60
2018-07-21T17:32:38.819Z,8.23
2018-07-21T17:35:11.659Z,7.40
2018-07-21T17:37:43.748Z,7.47
2018-07-21T17:40:15.832Z,7.33
2018-07-21T17:42:47.935Z,7.63
2018-07-21T17:45:19.997Z,7.80
2018-07-21T17:47:52.093Z,8.70
2018-07-21T17:50:24.322Z,7.80
2018-07-21T17:52:56.467Z,7.47
2018-07-21T17:55:28.551Z,8.37
2018-07-21T17:58:00.757Z,7.67
2018-07-21T18:00:32.823Z,7.80
2018-07-21T18:03:04.933Z,7.63
2018-07-21T18:05:36.993Z,6.93
2018-07-21T18:08:09.059Z,6.73
2018-07-21T18:10:41.183Z,7.80
2018-07-21T18:13:13.265Z,7.80
2018-07-21T18:15:45.362Z,7.30
2018-07-21T18:18:17.375Z,8.57
2018-07-21T18:20:49.421Z,7.80
2018-07-21T18:23:21.535Z,7.40
2018-07-21T18:25:53.592Z,7.67
2018-07-21T18:28:25.730Z,7.00
2018-07-21T18:30:57.775Z,7.90
2018-07-21T18:33:29.882Z,10.13
2018-07-21T18:36:01.928Z,7.43
2018-07-21T18:38:34.027Z,7.67
2018-07-21T18:41:06.968Z,7.50
2018-07-21T18:43:39.384Z,7.87
2018-07-21T18:46:11.574Z,7.73
2018-07-21T18:48:43.676Z,7.20
2018-07-21T18:51:15.793Z,8.70
2018-07-21T18:53:47.903Z,7.73
2018-07-21T18:56:19.938Z,8.17
2018-07-21T18:58:52.035Z,7.73
2018-07-21T19:01:24.108Z,7.30
2018-07-21T19:03:56.219Z,7.93
2018-07-21T19:06:28.946Z,7.73
2018-07-21T19:09:02.218Z,9.00
2018-07-21T19:11:34.326Z,7.60
2018-07-21T19:14:06.398Z,7.80
2018-07-21T19:16:40.018Z,7.63
2018-07-21T19:19:12.047Z,7.70
2018-07-21T19:21:44.141Z,7.97
2018-07-21T19:24:16.320Z,7.43
2018-07-21T19:26:54.076Z,7.03
2018-07-21T19:29:26.211Z,7.40
2018-07-21T19:32:04.117Z,7.33
2018-07-21T19:34:36.154Z,8.43
2018-07-21T19:37:14.054Z,8.13
2018-07-21T19:39:46.176Z,7.80
2018-07-21T19:42:18.267Z,8.00
2018-07-21T19:44:50.326Z,8.17
2018-07-21T19:47:22.603Z,8.60
2018-07-21T19:49:54.603Z,8.20
2018-07-21T19:52:26.680Z,7.90
2018-07-21T19:54:58.760Z,8.40
2018-07-21T19:57:30.838Z,9.00
2018-07-21T20:00:03.447Z,8.40
2018-07-21T20:02:35.570Z,8.67
2018-07-21T20:05:07.706Z,7.80
2018-07-21T20:07:39.777Z,8.63
2018-07-21T20:10:11.899Z,8.20
2018-07-21T20:12:43.983Z,8.80
2018-07-21T20:15:16.125Z,9.73
2018-07-21T20:17:48.210Z,9.57
2018-07-21T20:20:20.264Z,9.97
2018-07-21T20:22:52.323Z,9.60
2018-07-21T20:25:24.432Z,10.70
2018-07-21T20:27:56.527Z,10.40
2018-07-21T20:30:28.609Z,10.53
2018-07-21T20:33:00.705Z,11.27
2018-07-21T20:35:32.746Z,9.93
2018-07-21T20:38:04.855Z,10.70
2018-07-21T20:40:36.947Z,9.70
2018-07-21T20:43:09.013Z,9.50
2018-07-21T20:45:41.106Z,10.10
2018-07-21T20:48:13.163Z,10.77
2018-07-21T20:50:45.266Z,10.30
2018-07-21T20:53:17.294Z,9.40
2018-07-21T20:55:49.419Z,9.10
2018-07-21T20:58:21.485Z,10.50
2018-07-21T21:00:53.557Z,10.40
2018-07-21T21:03:25.655Z,9.70
2018-07-21T21:05:57.731Z,9.30
2018-07-21T21:08:29.792Z,10.40
2018-07-21T21:11:01.914Z,9.37
2018-07-21T21:13:34.028Z,9.73
2018-07-21T21:16:06.095Z,9.90
2018-07-21T21:18:38.150Z,9.40
2018-07-21T21:21:10.230Z,9.73
2018-07-21T21:23:42.310Z,10.30
2018-07-21T21:26:14.394Z,9.60
2018-07-21T21:28:46.438Z,9.40
2018-07-21T21:31:18.521Z,9.10
2018-07-21T21:33:50.578Z,10.70
2018-07-21T21:36:22.620Z,9.00
2018-07-21T21:38:54.675Z,9.30
2018-07-21T21:41:26.751Z,9.77
2018-07-21T21:43:58.766Z,9.27
2018-07-21T21:46:30.836Z,10.37
2018-07-21T21:49:02.864Z,10.27
2018-07-21T21:51:34.933Z,10.60
2018-07-21T21:54:07.059Z,10.93
2018-07-21T21:56:39.132Z,11.87
2018-07-21T21:59:11.200Z,12.30
2018-07-21T22:01:43.270Z,12.77
2018-07-21T22:04:15.317Z,13.53
2018-07-21T22:06:47.357Z,12.00
2018-07-21T22:09:19.425Z,12.30
2018-07-21T22:11:51.523Z,12.30
2018-07-21T22:14:23.651Z,13.73
2018-07-21T22:16:55.666Z,14.20
2018-07-21T22:19:27.752Z,14.43
2018-07-21T22:21:59.796Z,14.50
2018-07-21T22:24:31.885Z,15.17
2018-07-21T22:27:04.047Z,16.07
2018-07-21T22:29:36.143Z,17.00
2018-07-21T22:32:08.214Z,16.60
2018-07-21T22:34:40.363Z,16.43
2018-07-21T22:37:12.402Z,15.80
2018-07-21T22:39:44.484Z,16.60
2018-07-21T22:42:16.523Z,15.53
2018-07-21T22:44:48.589Z,16.80
2018-07-21T22:47:20.674Z,15.20
2018-07-21T22:49:52.831Z,16.70
2018-07-21T22:52:24.937Z,14.80
2018-07-21T22:54:57.045Z,16.37
2018-07-21T22:57:29.275Z,15.47
2018-07-21T23:00:01.478Z,16.50
2018-07-21T23:02:33.619Z,15.00
2018-07-21T23:05:05.765Z,15.50
2018-07-21T23:07:37.867Z,13.47
2018-07-21T23:10:10.058Z,12.80
2018-07-21T23:12:42.123Z,12.70
2018-07-21T23:15:14.198Z,13.00
2018-07-21T23:17:46.273Z,13.57
2018-07-21T23:20:18.380Z,12.43
2018-07-21T23:22:50.426Z,13.43
2018-07-21T23:25:22.511Z,12.20
2018-07-21T23:27:54.631Z,12.50
2018-07-21T23:30:26.681Z,13.73
2018-07-21T23:32:58.761Z,12.90
2018-07-21T23:35:30.903Z,13.97
2018-07-21T23:38:03.010Z,12.53
2018-07-21T23:40:35.093Z,13.43
2018-07-21T23:43:07.210Z,13.93
2018-07-21T23:45:39.301Z,13.27
2018-07-21T23:48:11.424Z,13.53
2018-07-21T23:50:43.598Z,13.03
2018-07-21T23:53:22.411Z,14.23
2018-07-21T23:55:54.552Z,15.00
2018-07-21T23:58:26.759Z,13.10
